createdAt,value
2023-01-08T00:01:45.909Z,100044.41
2023-01-08T00:04:18.018Z,100036.50
2023-01-08T00:06:48.027Z,100031.25
2023-01-08T00:09:20.497Z,100042.69
2023-01-08T00:11:50.292Z,100032.13
2023-01-08T00:14:20.006Z,100030.44
2023-01-08T00:16:49.789Z,100033.09
2023-01-08T00:19:19.648Z,100034.88
2023-01-08T00:21:49.479Z,100038.38
2023-01-08T00:24:21.910Z,100035.72
2023-01-08T00:26:51.703Z,100023.38
2023-01-08T00:29:21.451Z,100033.88
2023-01-08T00:31:51.203Z,100026.84
2023-01-08T00:34:20.951Z,100026.00
2023-01-08T00:36:50.723Z,100020.72
2023-01-08T00:39:23.101Z,100018.97
2023-01-08T00:41:52.793Z,100026.84
2023-01-08T00:44:22.503Z,100029.50
2023-01-08T00:46:52.259Z,100026.84
2023-01-08T00:49:22.109Z,100026.88
2023-01-08T00:51:51.979Z,100018.16
2023-01-08T00:54:24.351Z,100019.03
2023-01-08T00:56:54.128Z,100023.38
2023-01-08T00:59:23.941Z,100019.03
2023-01-08T01:01:54.711Z,100007.59
2023-01-08T01:04:25.584Z,100008.47
2023-01-08T01:06:55.419Z,100013.72
2023-01-08T01:09:27.971Z,100011.03
2023-01-08T01:11:57.923Z,100004.03
2023-01-08T01:14:27.905Z,100009.28
2023-01-08T01:16:57.714Z,100009.25
2023-01-08T01:19:27.553Z,100006.59
2023-01-08T01:21:57.337Z,100009.13
2023-01-08T01:24:29.782Z,99999.44
2023-01-08T01:26:59.595Z,100004.66
2023-01-08T01:29:29.637Z,100002.88
2023-01-08T01:31:59.436Z,100003.66
2023-01-08T01:34:29.275Z,100015.09
2023-01-08T01:36:59.361Z,100003.66
2023-01-08T01:39:32.002Z,100004.59
2023-01-08T01:42:01.807Z,100015.94
2023-01-08T01:44:41.912Z,100024.69
2023-01-08T01:47:23.891Z,100009.78
2023-01-08T01:49:59.287Z,100027.31
2023-01-08T01:52:33.132Z,100022.06
2023-01-08T01:55:07.865Z,100014.19
2023-01-08T01:57:37.805Z,100022.00
2023-01-08T02:00:10.544Z,100027.31
2023-01-08T02:02:40.817Z,100028.19
2023-01-08T02:05:11.911Z,100036.97
2023-01-08T02:07:50.045Z,100036.09
2023-01-08T02:10:30.651Z,100043.03
2023-01-08T02:13:05.536Z,100041.22
2023-01-08T02:15:42.292Z,100036.78
2023-01-08T02:18:16.755Z,100026.22
2023-01-08T02:20:50.339Z,100021.03
2023-01-08T02:23:30.161Z,100038.44
2023-01-08T02:26:15.912Z,100032.25
2023-01-08T02:28:51.327Z,100028.72
2023-01-08T02:31:23.062Z,100039.22
2023-01-08T02:33:52.929Z,100027.78
2023-01-08T02:36:33.549Z,100024.25
2023-01-08T02:39:19.707Z,100031.22
2023-01-08T02:41:59.958Z,100038.19
2023-01-08T02:44:40.753Z,100035.44
2023-01-08T02:47:19.767Z,100037.13
2023-01-08T02:49:54.273Z,100030.94
2023-01-08T02:52:27.088Z,100029.13
2023-01-08T02:54:58.565Z,100029.94
2023-01-08T02:57:33.965Z,100028.19
2023-01-08T03:00:03.892Z,100029.88
2023-01-08T03:02:38.165Z,100020.22
2023-01-08T03:05:17.515Z,100022.00
2023-01-08T03:07:47.424Z,100015.00
2023-01-08T03:10:17.475Z,100027.25
2023-01-08T03:12:57.019Z,100019.38
2023-01-08T03:15:33.376Z,100016.69
2023-01-08T03:18:07.633Z,100017.53
2023-01-08T03:20:39.993Z,100027.09
2023-01-08T03:23:13.227Z,100016.56
2023-01-08T03:25:47.942Z,100018.28
2023-01-08T03:28:30.240Z,100017.34
2023-01-08T03:31:01.139Z,100016.41
2023-01-08T03:33:33.592Z,100012.91
2023-01-08T03:36:06.618Z,100016.28
2023-01-08T03:38:43.382Z,100024.09
2023-01-08T03:41:17.879Z,100017.91
2023-01-08T03:43:50.449Z,100019.56
2023-01-08T03:46:24.768Z,100025.63
2023-01-08T03:48:54.805Z,100028.19
2023-01-08T03:51:24.708Z,100032.50
2023-01-08T03:53:57.517Z,100032.50
2023-01-08T03:56:27.278Z,100025.44
2023-01-08T03:58:59.649Z,100007.00
2023-01-08T04:01:29.528Z,100011.31
2023-01-08T04:03:59.335Z,100003.44
2023-01-08T04:06:29.116Z,99997.28
2023-01-08T04:08:58.861Z,100001.63
2023-01-08T04:11:28.606Z,99997.19
2023-01-08T04:14:01.040Z,99997.19
2023-01-08T04:16:31.816Z,99991.88
2023-01-08T04:19:01.575Z,99983.94
2023-01-08T04:21:31.458Z,99983.94
2023-01-08T04:24:01.224Z,99990.94
2023-01-08T04:26:31.023Z,100002.31
2023-01-08T04:29:05.277Z,99987.38
2023-01-08T04:31:35.447Z,99997.88
2023-01-08T04:34:05.502Z,99996.13
2023-01-08T04:36:35.271Z,99994.38
2023-01-08T04:39:05.034Z,99998.75
2023-01-08T04:41:34.841Z,100000.44
2023-01-08T04:44:07.422Z,100003.94
2023-01-08T04:46:37.978Z,99988.13
2023-01-08T04:49:07.863Z,99985.38
2023-01-08T04:51:37.766Z,99985.38
2023-01-08T04:54:07.648Z,99986.25
2023-01-08T04:56:37.478Z,99971.31
2023-01-08T04:59:09.902Z,99968.69
2023-01-08T05:01:39.850Z,99971.28
2023-01-08T05:04:09.675Z,99963.41
2023-01-08T05:06:39.683Z,99962.59
2023-01-08T05:09:09.514Z,99953.88
2023-01-08T05:11:39.272Z,99957.44
2023-01-08T05:14:11.891Z,99950.44
2023-01-08T05:16:41.599Z,99939.09
2023-01-08T05:19:11.373Z,99945.28
2023-01-08T05:21:41.159Z,99947.88
2023-01-08T05:24:11.929Z,99964.56
2023-01-08T05:26:41.754Z,99961.94
2023-01-08T05:29:14.204Z,99957.56
2023-01-08T05:31:44.007Z,99949.66
2023-01-08T05:34:13.726Z,99947.03
2023-01-08T05:36:43.459Z,99953.19
2023-01-08T05:39:13.279Z,99949.66
2023-01-08T05:41:43.036Z,99945.28
2023-01-08T05:44:15.791Z,99948.81
2023-01-08T05:46:45.588Z,99948.84
2023-01-08T05:49:16.941Z,99941.91
2023-01-08T05:51:46.821Z,99942.78
2023-01-08T05:54:16.700Z,99946.31
2023-01-08T05:56:47.573Z,99948.94
2023-01-08T05:59:20.101Z,99958.50
2023-01-08T06:01:49.940Z,99949.66
2023-01-08T06:04:20.138Z,99953.09
2023-01-08T06:06:50.081Z,99953.91
2023-01-08T06:09:20.045Z,99955.63
2023-01-08T06:11:50.170Z,99948.53
2023-01-08T06:14:22.578Z,99951.06
2023-01-08T06:16:52.367Z,99957.97
2023-01-08T06:19:22.820Z,99955.31
2023-01-08T06:21:53.176Z,99947.44
2023-01-08T06:24:22.954Z,99943.91
2023-01-08T06:26:53.794Z,99947.31
2023-01-08T06:29:26.365Z,99947.31
2023-01-08T06:31:56.202Z,99947.31
2023-01-08T06:34:25.975Z,99949.94
2023-01-08T06:36:55.683Z,99952.53
2023-01-08T06:39:25.408Z,99957.69
2023-01-08T06:41:55.156Z,99952.44
2023-01-08T06:44:27.607Z,99953.22
2023-01-08T06:46:57.346Z,99948.81
2023-01-08T06:49:27.109Z,99949.69
2023-01-08T06:51:57.395Z,99951.41
2023-01-08T06:54:27.173Z,99944.34
2023-01-08T06:56:56.909Z,99953.06
2023-01-08T06:59:29.346Z,99946.88
2023-01-08T07:01:59.465Z,99947.75
2023-01-08T07:04:29.378Z,99943.44
2023-01-08T07:06:59.558Z,99942.53
2023-01-08T07:09:29.350Z,99945.13
2023-01-08T07:11:59.121Z,99956.50
2023-01-08T07:14:31.519Z,99951.19
2023-01-08T07:17:01.286Z,99949.44
2023-01-08T07:19:31.743Z,99952.00
2023-01-08T07:22:01.541Z,99952.81
2023-01-08T07:24:31.499Z,99953.69
2023-01-08T07:27:01.308Z,99955.38
2023-01-08T07:29:33.613Z,99949.19
2023-01-08T07:32:03.366Z,99945.63
2023-01-08T07:34:34.857Z,99955.22
2023-01-08T07:37:04.756Z,99941.13
2023-01-08T07:39:34.618Z,99951.59
2023-01-08T07:42:04.372Z,99952.47
2023-01-08T07:44:36.744Z,99950.66
2023-01-08T07:47:06.507Z,99955.91
2023-01-08T07:49:36.267Z,99952.34
2023-01-08T07:52:06.005Z,99962.75
2023-01-08T07:54:35.716Z,99963.56
2023-01-08T07:57:05.462Z,99951.25
2023-01-08T07:59:37.983Z,99952.94
2023-01-08T08:02:08.467Z,99957.25
2023-01-08T08:04:38.376Z,99956.31
2023-01-08T08:07:08.287Z,99949.28
2023-01-08T08:09:38.030Z,99947.53
2023-01-08T08:12:08.157Z,99952.78
2023-01-08T08:14:40.539Z,99950.97
2023-01-08T08:17:10.462Z,99947.47
2023-01-08T08:19:41.738Z,99944.78
2023-01-08T08:22:11.869Z,99948.22
2023-01-08T08:24:41.680Z,99946.47
2023-01-08T08:27:11.472Z,99950.81
2023-01-08T08:29:44.145Z,99947.28
2023-01-08T08:32:13.942Z,99945.59
2023-01-08T08:34:43.759Z,99950.91
2023-01-08T08:37:13.568Z,99933.50
2023-01-08T08:39:43.374Z,99944.06
2023-01-08T08:42:13.163Z,99932.84
2023-01-08T08:44:45.689Z,99935.66
2023-01-08T08:47:15.785Z,99934.13
2023-01-08T08:49:45.597Z,99922.94
2023-01-08T08:52:15.354Z,99924.97
2023-01-08T08:54:45.286Z,99922.53
2023-01-08T08:57:15.229Z,99921.78
2023-01-08T08:59:47.707Z,99920.13
2023-01-08T09:02:17.650Z,99918.41
2023-01-08T09:04:49.701Z,99914.91
2023-01-08T09:07:19.570Z,99920.22
2023-01-08T09:09:49.382Z,99919.41
2023-01-08T09:12:19.304Z,99913.34
2023-01-08T09:14:51.915Z,99917.81
2023-01-08T09:17:21.723Z,99922.22
2023-01-08T09:19:51.765Z,99917.03
2023-01-08T09:22:21.687Z,99909.16
2023-01-08T09:24:51.495Z,99914.41
2023-01-08T09:27:21.331Z,99917.91
2023-01-08T09:29:53.917Z,99911.72
2023-01-08T09:32:23.691Z,99916.09
2023-01-08T09:34:53.560Z,99921.34
2023-01-08T09:37:23.492Z,99912.56
2023-01-08T09:40:01.747Z,99911.66
2023-01-08T09:42:33.596Z,99917.72
2023-01-08T09:45:06.708Z,99916.81
2023-01-08T09:47:52.947Z,99914.19
2023-01-08T09:50:25.519Z,99916.78
2023-01-08T09:52:55.957Z,99927.28
2023-01-08T09:55:25.892Z,99914.16
2023-01-08T09:57:56.312Z,99919.44
2023-01-08T10:00:31.775Z,99920.28
2023-01-08T10:03:01.752Z,99918.53
2023-01-08T10:05:33.674Z,99916.81
2023-01-08T10:08:03.527Z,99920.34
2023-01-08T10:10:34.729Z,99920.34
2023-01-08T10:13:04.877Z,99919.47
2023-01-08T10:15:37.397Z,99915.09
2023-01-08T10:18:09.719Z,99913.38
2023-01-08T10:20:39.779Z,99903.81
2023-01-08T10:23:15.511Z,99902.97
2023-01-08T10:25:59.063Z,99904.78
2023-01-08T10:28:30.592Z,99896.03
2023-01-08T10:31:21.306Z,99889.91
2023-01-08T10:33:52.589Z,99897.75
2023-01-08T10:36:27.794Z,99884.69
2023-01-08T10:39:02.196Z,99890.91
2023-01-08T10:41:32.826Z,99887.44
2023-01-08T10:44:06.414Z,99877.00
2023-01-08T10:46:44.688Z,99877.09
2023-01-08T10:49:20.980Z,99877.97
2023-01-08T10:51:55.886Z,99867.47
2023-01-08T10:54:36.563Z,99864.84
2023-01-08T10:57:06.797Z,99855.22
2023-01-08T10:59:40.316Z,99854.38
2023-01-08T11:02:27.413Z,99849.22
2023-01-08T11:05:00.008Z,99852.69
2023-01-08T11:07:30.795Z,99856.19
2023-01-08T11:10:00.960Z,99855.41
2023-01-08T11:12:37.239Z,99849.34
2023-01-08T11:15:08.617Z,99855.53
2023-01-08T11:17:40.966Z,99853.78
2023-01-08T11:20:21.761Z,99849.41
2023-01-08T11:22:51.644Z,99852.94
2023-01-08T11:25:31.884Z,99851.25
2023-01-08T11:28:04.151Z,99854.81
2023-01-08T11:30:37.038Z,99850.38
2023-01-08T11:33:16.409Z,99846.88
2023-01-08T11:35:51.882Z,99840.75
2023-01-08T11:38:21.670Z,99837.31
2023-01-08T11:40:54.767Z,99845.25
2023-01-08T11:43:33.600Z,99838.22
2023-01-08T11:46:20.880Z,99833.00
2023-01-08T11:49:13.212Z,99829.59
2023-01-08T11:51:55.770Z,99826.16
2023-01-08T11:54:44.766Z,99814.00
2023-01-08T11:57:24.349Z,99812.25
2023-01-08T12:00:08.971Z,99801.81
2023-01-08T12:02:55.460Z,99798.31
2023-01-08T12:05:31.446Z,99805.34
2023-01-08T12:08:11.685Z,99786.09
2023-01-08T12:11:04.412Z,99791.41
2023-01-08T12:13:54.949Z,99789.69
2023-01-08T12:16:39.922Z,99787.97
2023-01-08T12:19:34.742Z,99785.44
2023-01-08T12:22:22.188Z,99779.34
2023-01-08T12:25:10.061Z,99784.59
2023-01-08T12:27:56.833Z,99771.47
2023-01-08T12:30:36.601Z,99771.47
2023-01-08T12:33:13.038Z,99767.09
2023-01-08T12:35:48.457Z,99768.88
2023-01-08T12:38:25.633Z,99765.38
2023-01-08T12:41:00.099Z,99756.59
2023-01-08T12:43:33.885Z,99753.94
2023-01-08T12:46:05.933Z,99757.41
2023-01-08T12:48:38.392Z,99757.47
2023-01-08T12:51:18.174Z,99760.03
2023-01-08T12:54:01.043Z,99753.91
2023-01-08T12:56:39.533Z,99746.03
2023-01-08T12:59:18.895Z,99754.78
2023-01-08T13:01:55.535Z,99748.66
2023-01-08T13:04:25.429Z,99745.97
2023-01-08T13:07:01.868Z,99745.97
2023-01-08T13:09:35.741Z,99730.22
2023-01-08T13:12:05.723Z,99728.47
2023-01-08T13:14:44.237Z,99724.97
2023-01-08T13:17:22.392Z,99734.66
2023-01-08T13:19:56.862Z,99734.59
2023-01-08T13:22:30.177Z,99724.97
2023-01-08T13:25:31.574Z,99726.72
2023-01-08T13:28:04.918Z,99710.09
2023-01-08T13:30:42.445Z,99713.59
2023-01-08T13:33:41.410Z,99709.25
2023-01-08T13:36:21.188Z,99713.59
2023-01-08T13:39:03.410Z,99706.63
2023-01-08T13:41:35.518Z,99707.47
2023-01-08T13:44:09.874Z,99705.72
2023-01-08T13:46:41.844Z,99693.50
2023-01-08T13:49:22.513Z,99689.13
2023-01-08T13:51:52.307Z,99678.63
2023-01-08T13:54:27.032Z,99685.69
2023-01-08T13:57:04.336Z,99677.81
2023-01-08T13:59:40.664Z,99674.28
2023-01-08T14:02:27.255Z,99671.69
2023-01-08T14:04:58.082Z,99673.38
2023-01-08T14:07:28.343Z,99662.91
2023-01-08T14:10:09.750Z,99665.59
2023-01-08T14:12:39.699Z,99668.25
2023-01-08T14:15:21.847Z,99671.84
2023-01-08T14:17:52.399Z,99670.97
2023-01-08T14:20:34.628Z,99665.72
2023-01-08T14:23:05.273Z,99665.72
2023-01-08T14:25:35.231Z,99670.06
2023-01-08T14:28:07.298Z,99666.56
2023-01-08T14:30:39.763Z,99660.44
2023-01-08T14:33:15.848Z,99663.94
2023-01-08T14:35:46.548Z,99663.94
2023-01-08T14:38:17.223Z,99670.97
2023-01-08T14:40:51.378Z,99657.84
2023-01-08T14:43:23.834Z,99655.22
2023-01-08T14:45:57.863Z,99661.34
2023-01-08T14:48:31.924Z,99663.97
2023-01-08T14:51:07.479Z,99663.09
2023-01-08T14:53:40.677Z,99665.72
2023-01-08T14:56:15.201Z,99659.56
2023-01-08T14:58:47.802Z,99664.81
2023-01-08T15:01:24.199Z,99661.31
2023-01-08T15:03:56.335Z,99656.03
2023-01-08T15:06:29.982Z,99649.88
2023-01-08T15:09:00.466Z,99646.38
2023-01-08T15:11:32.306Z,99641.94
2023-01-08T15:14:02.288Z,99641.88
2023-01-08T15:16:38.915Z,99638.38
2023-01-08T15:19:14.439Z,99637.44
2023-01-08T15:21:50.022Z,99640.91
2023-01-08T15:24:27.525Z,99637.34
2023-01-08T15:26:57.832Z,99634.69
2023-01-08T15:29:33.418Z,99631.19
2023-01-08T15:32:23.480Z,99634.66
2023-01-08T15:34:53.236Z,99636.31
2023-01-08T15:37:22.983Z,99634.50
2023-01-08T15:39:52.746Z,99629.22
2023-01-08T15:42:36.315Z,99624.75
2023-01-08T15:45:06.701Z,99636.94
2023-01-08T15:47:39.200Z,99626.41
2023-01-08T15:50:10.223Z,99633.31
2023-01-08T15:52:41.302Z,99628.06
2023-01-08T15:55:19.157Z,99619.28
2023-01-08T15:57:49.249Z,99623.59
2023-01-08T16:00:22.766Z,99616.56
2023-01-08T16:02:59.547Z,99609.47
2023-01-08T16:05:33.047Z,99612.88
2023-01-08T16:08:06.526Z,99612.75
2023-01-08T16:10:37.453Z,99605.72
2023-01-08T16:13:07.198Z,99609.19
2023-01-08T16:15:36.997Z,99603.91
2023-01-08T16:18:09.630Z,99595.13
2023-01-08T16:20:39.817Z,99595.97
2023-01-08T16:23:09.909Z,99596.84
2023-01-08T16:25:41.928Z,99587.16
2023-01-08T16:28:12.191Z,99585.38
2023-01-08T16:30:44.204Z,99589.75
2023-01-08T16:33:16.853Z,99589.69
2023-01-08T16:35:47.039Z,99589.69
2023-01-08T16:38:18.070Z,99588.75
2023-01-08T16:40:48.023Z,99590.47
2023-01-08T16:43:17.855Z,99586.91
2023-01-08T16:45:49.196Z,99583.38
2023-01-08T16:48:21.721Z,99582.47
2023-01-08T16:50:52.243Z,99588.56
2023-01-08T16:53:22.734Z,99593.78
2023-01-08T16:55:52.513Z,99587.66
2023-01-08T16:58:22.294Z,99584.97
2023-01-08T17:00:52.121Z,99584.06
2023-01-08T17:03:25.331Z,99587.53
2023-01-08T17:06:00.203Z,99583.13
2023-01-08T17:08:30.274Z,99578.75
2023-01-08T17:11:00.027Z,99581.38
2023-01-08T17:13:29.833Z,99577.88
2023-01-08T17:16:00.082Z,99584.03
2023-01-08T17:18:32.567Z,99577.94
2023-01-08T17:21:02.845Z,99578.78
2023-01-08T17:23:32.963Z,99576.19
2023-01-08T17:26:04.640Z,99577.94
2023-01-08T17:28:35.233Z,99573.56
2023-01-08T17:31:06.415Z,99573.56
2023-01-08T17:33:39.783Z,99559.53
2023-01-08T17:36:14.156Z,99569.97
2023-01-08T17:38:44.787Z,99563.81
2023-01-08T17:41:34.496Z,99562.88
2023-01-08T17:44:06.892Z,99563.69
2023-01-08T17:46:37.906Z,99560.97
2023-01-08T17:49:11.389Z,99547.81
2023-01-08T17:51:41.669Z,99554.81
2023-01-08T17:54:13.549Z,99565.34
2023-01-08T17:56:43.471Z,99565.34
2023-01-08T17:59:16.386Z,99567.94
2023-01-08T18:01:46.334Z,99561.78
2023-01-08T18:04:19.113Z,99557.41
2023-01-08T18:06:49.031Z,99553.88
2023-01-08T18:09:18.999Z,99543.34
2023-01-08T18:11:48.724Z,99542.47
2023-01-08T18:14:18.825Z,99552.03
2023-01-08T18:16:49.641Z,99542.34
2023-01-08T18:19:22.892Z,99542.25
2023-01-08T18:21:52.735Z,99544.00
2023-01-08T18:24:22.618Z,99536.97
2023-01-08T18:26:52.945Z,99534.28
2023-01-08T18:29:22.822Z,99523.69
2023-01-08T18:31:52.777Z,99522.78
2023-01-08T18:34:25.237Z,99525.34
2023-01-08T18:36:55.051Z,99520.84
2023-01-08T18:39:26.778Z,99513.75
2023-01-08T18:42:08.997Z,99505.78
2023-01-08T18:44:41.062Z,99499.56
2023-01-08T18:47:12.628Z,99493.38
2023-01-08T18:49:45.239Z,99485.47
2023-01-08T18:52:15.212Z,99472.34
2023-01-08T18:54:45.113Z,99472.28
2023-01-08T18:57:15.278Z,99479.22
2023-01-08T18:59:47.530Z,99473.09
2023-01-08T19:02:22.889Z,99478.28
2023-01-08T19:04:55.458Z,99465.13
2023-01-08T19:07:25.901Z,99462.47
2023-01-08T19:09:57.050Z,99463.34
2023-01-08T19:12:28.216Z,99455.44
2023-01-08T19:14:59.182Z,99449.25
2023-01-08T19:17:29.195Z,99441.41
2023-01-08T19:20:02.160Z,99432.63
2023-01-08T19:22:33.062Z,99424.66
2023-01-08T19:25:03.029Z,99435.13
2023-01-08T19:27:32.836Z,99416.81
2023-01-08T19:30:02.709Z,99419.38
2023-01-08T19:32:32.449Z,99421.06
2023-01-08T19:35:05.810Z,99418.44
2023-01-08T19:37:35.556Z,99414.03
2023-01-08T19:40:06.402Z,99413.13
2023-01-08T19:42:50.027Z,99413.97
2023-01-08T19:45:19.898Z,99402.59
2023-01-08T19:47:49.754Z,99393.84
2023-01-08T19:50:22.807Z,99392.06
2023-01-08T19:52:53.234Z,99386.75
2023-01-08T19:55:23.035Z,99383.22
2023-01-08T19:57:54.766Z,99384.97
2023-01-08T20:00:24.839Z,99378.00
2023-01-08T20:02:54.731Z,99372.69
2023-01-08T20:05:27.268Z,99380.50
2023-01-08T20:07:57.096Z,99376.94
2023-01-08T20:10:26.834Z,99375.16
2023-01-08T20:12:56.570Z,99378.63
2023-01-08T20:15:26.394Z,99372.53
2023-01-08T20:17:56.141Z,99368.22
2023-01-08T20:20:28.537Z,99363.00
2023-01-08T20:22:58.270Z,99370.84
2023-01-08T20:25:28.077Z,99363.00
2023-01-08T20:27:57.906Z,99369.94
2023-01-08T20:30:27.667Z,99363.81
2023-01-08T20:32:58.862Z,99355.91
2023-01-08T20:35:31.252Z,99344.47
2023-01-08T20:38:01.044Z,99347.97
2023-01-08T20:40:30.808Z,99335.75
2023-01-08T20:43:01.032Z,99340.97
2023-01-08T20:45:30.733Z,99336.56
2023-01-08T20:48:00.434Z,99340.06
2023-01-08T20:50:32.887Z,99332.19
2023-01-08T20:53:02.709Z,99332.19
2023-01-08T20:55:32.539Z,99324.31
2023-01-08T20:58:02.336Z,99328.66
2023-01-08T21:00:32.155Z,99326.00
2023-01-08T21:03:02.148Z,99324.19
2023-01-08T21:05:36.589Z,99307.63
2023-01-08T21:08:06.759Z,99312.88
2023-01-08T21:10:37.244Z,99316.34
2023-01-08T21:13:07.151Z,99295.41
2023-01-08T21:15:39.005Z,99293.69
2023-01-08T21:18:09.203Z,99291.06
2023-01-08T21:20:41.722Z,99281.47
2023-01-08T21:23:11.530Z,99281.47
2023-01-08T21:25:41.402Z,99276.25
2023-01-08T21:28:11.272Z,99272.72
2023-01-08T21:30:41.174Z,99268.34
2023-01-08T21:33:10.933Z,99263.97
2023-01-08T21:35:43.345Z,99263.94
2023-01-08T21:38:13.177Z,99256.03
2023-01-08T21:40:43.180Z,99255.16
2023-01-08T21:43:39.870Z,99248.19
2023-01-08T21:46:09.712Z,99261.22
2023-01-08T21:48:39.545Z,99251.63
2023-01-08T21:51:32.646Z,99253.41
2023-01-08T21:53:59.790Z,99246.38
2023-01-08T21:56:29.740Z,99242.00
2023-01-08T21:58:59.622Z,99235.88
2023-01-08T22:01:29.575Z,99228.91
2023-01-08T22:03:59.364Z,99226.28
2023-01-08T22:06:31.839Z,99225.41
2023-01-08T22:09:01.667Z,99222.75
2023-01-08T22:11:31.501Z,99216.66
2023-01-08T22:14:01.737Z,99213.22
2023-01-08T22:16:31.563Z,99216.72
2023-01-08T22:19:01.466Z,99206.25
2023-01-08T22:21:33.898Z,99201.00
2023-01-08T22:24:03.971Z,99200.97
2023-01-08T22:26:35.381Z,99200.09
2023-01-08T22:29:06.168Z,99190.50
2023-01-08T22:31:36.809Z,99186.16
2023-01-08T22:34:06.710Z,99188.75
2023-01-08T22:36:39.146Z,99189.63
2023-01-08T22:39:08.967Z,99185.28
2023-01-08T22:41:38.881Z,99182.63
2023-01-08T22:44:08.829Z,99176.56
2023-01-08T22:46:38.630Z,99183.50
2023-01-08T22:49:08.448Z,99174.78
2023-01-08T22:51:40.963Z,99172.19
2023-01-08T22:54:11.215Z,99165.19
2023-01-08T22:56:41.152Z,99159.97
2023-01-08T22:59:11.009Z,99162.56
2023-01-08T23:01:40.930Z,99160.81
2023-01-08T23:04:10.965Z,99162.56
2023-01-08T23:06:45.243Z,99161.69
2023-01-08T23:09:15.068Z,99158.22
2023-01-08T23:11:45.081Z,99145.19
2023-01-08T23:14:16.940Z,99146.94
2023-01-08T23:16:46.872Z,99146.97
2023-01-08T23:19:16.946Z,99148.72
2023-01-08T23:21:49.327Z,99139.19
2023-01-08T23:24:19.083Z,99144.41
2023-01-08T23:26:48.891Z,99150.63
2023-01-08T23:29:18.754Z,99148.94
2023-01-08T23:31:48.642Z,99152.50
2023-01-08T23:34:18.511Z,99147.34
2023-01-08T23:36:51.014Z,99145.69
2023-01-08T23:39:21.544Z,99151.00
2023-01-08T23:41:51.383Z,99143.25
2023-01-08T23:44:21.283Z,99140.69
2023-01-08T23:46:51.217Z,99143.34
2023-01-08T23:49:21.068Z,99135.53
2023-01-08T23:51:54.266Z,99142.56
2023-01-08T23:54:24.555Z,99146.97
2023-01-08T23:56:54.360Z,99133.97
2023-01-08T23:59:24.290Z,99137.50
